createdAt,value
2022-11-20T15:13:00.375Z,99405.7
2022-11-20T15:17:43.610Z,99429.09
2022-11-20T15:22:29.219Z,99445.7
2022-11-20T15:27:12.623Z,99450.61
2022-11-20T15:31:55.906Z,99454.63
2022-11-20T15:36:39.265Z,99455.11
2022-11-20T15:41:25.297Z,99453.91
2022-11-20T15:46:12.950Z,99460.76
2022-11-20T15:50:59.004Z,99457.88
2022-11-20T15:55:42.089Z,99455.38
2022-11-20T16:00:25.124Z,99458.58
2022-11-20T16:05:08.270Z,99465.42
2022-11-20T16:10:02.600Z,99458.29
2022-11-20T16:14:47.302Z,99452.44
2022-11-20T16:19:34.645Z,99457.35
2022-11-20T16:24:27.529Z,99457.27
2022-11-20T16:29:22.726Z,99452.23
2022-11-20T16:34:13.066Z,99444.88
2022-11-20T16:38:58.954Z,99443.47
2022-11-20T16:43:42.517Z,99441.53
2022-11-20T16:48:25.767Z,99447.73
2022-11-20T16:53:09.010Z,99449.73
2022-11-20T16:57:52.281Z,99448.1
2022-11-20T17:02:35.486Z,99441.38
2022-11-20T17:07:18.681Z,99447.44
2022-11-20T17:12:01.861Z,99457.41
2022-11-20T17:16:45.024Z,99456.13
2022-11-20T17:21:28.204Z,99460.86
2022-11-20T17:26:11.470Z,99459.75
2022-11-20T17:30:54.556Z,99468.09
2022-11-20T17:35:39.554Z,99469.09
2022-11-20T17:40:28.463Z,99476.47
2022-11-20T17:45:11.505Z,99474.72
2022-11-20T17:49:54.739Z,99481.47
2022-11-20T17:54:37.781Z,99480.54
2022-11-20T17:59:20.825Z,99471.77
2022-11-20T18:04:03.863Z,99465.61
2022-11-20T18:08:46.966Z,99461.08
2022-11-20T18:13:30.104Z,99454.8
2022-11-20T18:18:13.336Z,99451.67
2022-11-20T18:22:56.315Z,99442.63
2022-11-20T18:27:39.431Z,99442.63
2022-11-20T18:32:22.838Z,99444.72
2022-11-20T18:37:06.125Z,99450.02
2022-11-20T18:41:49.323Z,99458.52
2022-11-20T18:46:32.533Z,99468.14
2022-11-20T18:51:15.706Z,99470.59
2022-11-20T18:55:58.819Z,99472.25
2022-11-20T19:05:42.507Z,99464.23
2022-11-20T19:10:25.484Z,99458.05
2022-11-20T19:15:08.584Z,99456
2022-11-20T19:19:51.583Z,99457.12
2022-11-20T19:24:34.611Z,99465.03
2022-11-20T19:29:17.748Z,99462.69
2022-11-20T19:34:00.811Z,99462.19
2022-11-20T19:38:57.547Z,99457.33
2022-11-20T19:43:40.627Z,99461.73
2022-11-20T19:48:23.647Z,99464.23
2022-11-20T19:53:06.703Z,99464.1
2022-11-20T19:57:49.678Z,99468.59
2022-11-20T20:02:32.671Z,99476.14
2022-11-20T20:07:15.912Z,99485.73
2022-11-20T20:12:13.128Z,99488.05
2022-11-20T20:16:56.116Z,99488.62
2022-11-20T20:21:39.350Z,99488.58
2022-11-20T20:26:22.271Z,99495.64
2022-11-20T20:31:05.230Z,99495.36
2022-11-20T20:35:48.241Z,99497.53
2022-11-20T20:40:31.226Z,99492.11
2022-11-20T20:45:14.221Z,99486.11
2022-11-20T20:49:57.167Z,99483.2
2022-11-20T20:54:40.147Z,99482.03
2022-11-20T20:59:23.682Z,99473.5
2022-11-20T21:04:07.474Z,99472.09
2022-11-20T21:08:50.481Z,99466.03
2022-11-20T21:13:33.485Z,99465.64
2022-11-20T21:18:16.468Z,99467.67
2022-11-20T21:22:59.466Z,99472.1
2022-11-20T21:27:42.456Z,99471.31
2022-11-20T21:32:25.442Z,99468.4
2022-11-20T21:37:08.438Z,99471.94
2022-11-20T21:41:51.460Z,99468.46
2022-11-20T21:46:34.447Z,99462.27
2022-11-20T21:51:17.433Z,99458.93
2022-11-20T21:56:00.362Z,99454.21
2022-11-20T22:00:43.308Z,99459.45
2022-11-20T22:05:26.277Z,99463.83
2022-11-20T22:10:09.526Z,99459.09
2022-11-20T22:15:00.096Z,99456.37
2022-11-20T22:19:43.049Z,99443.66
2022-11-20T22:24:26.846Z,99443.95
2022-11-20T22:29:10.248Z,99447.67
2022-11-20T22:33:53.179Z,99447.84
2022-11-20T22:38:40.452Z,99453.72
2022-11-20T22:43:23.384Z,99454.11
2022-11-20T22:48:06.291Z,99450.91
2022-11-20T22:52:49.250Z,99449.06
2022-11-20T22:57:32.246Z,99446.88
2022-11-20T23:02:15.156Z,99441.69
2022-11-20T23:06:58.100Z,99435.58
2022-11-20T23:11:41.065Z,99436.66
2022-11-20T23:16:24.006Z,99420.53
2022-11-20T23:21:06.943Z,99420.58
2022-11-20T23:25:49.870Z,99413.44
2022-11-20T23:30:32.809Z,99404.83
2022-11-20T23:35:15.798Z,99400.25
2022-11-20T23:39:58.742Z,99391.05
2022-11-20T23:44:41.708Z,99387.56
2022-11-20T23:49:24.690Z,99387.61
2022-11-20T23:54:07.639Z,99386.13
2022-11-20T23:58:50.574Z,99389.55
